createdAt,value
2022-08-01T00:00:57.984Z,47.18
2022-08-01T00:03:26.116Z,47.18
2022-08-01T00:05:54.183Z,47.19
2022-08-01T00:08:22.291Z,47.08
2022-08-01T00:10:50.339Z,47.25
2022-08-01T00:13:18.402Z,46.99
2022-08-01T00:15:53.832Z,47.05
2022-08-01T00:18:24.089Z,47.01
2022-08-01T00:20:52.224Z,46.88
2022-08-01T00:23:20.349Z,47.08
2022-08-01T00:25:48.459Z,46.80
2022-08-01T00:28:17.304Z,46.87
2022-08-01T00:30:45.452Z,46.85
2022-08-01T00:33:13.591Z,46.94
2022-08-01T00:35:43.105Z,47.08
2022-08-01T00:38:12.042Z,47.02
2022-08-01T00:40:40.161Z,46.83
2022-08-01T00:43:08.229Z,46.97
2022-08-01T00:45:36.359Z,47.09
2022-08-01T00:48:04.678Z,47.18
2022-08-01T00:50:32.780Z,47.01
2022-08-01T00:53:02.383Z,46.85
2022-08-01T00:55:30.749Z,47.06
2022-08-01T00:58:03.826Z,46.85
2022-08-01T01:00:52.456Z,46.90
2022-08-01T01:03:33.455Z,46.78
2022-08-01T01:06:17.513Z,47.15
2022-08-01T01:08:49.744Z,47.17
2022-08-01T01:11:22.725Z,47.30
2022-08-01T01:13:53.712Z,46.73
2022-08-01T01:16:22.039Z,46.74
2022-08-01T01:18:51.856Z,46.57
2022-08-01T01:21:37.581Z,46.95
2022-08-01T01:24:11.292Z,47.01
2022-08-01T01:26:42.800Z,46.78
2022-08-01T01:29:16.832Z,47.04
2022-08-01T01:31:47.072Z,46.88
2022-08-01T01:34:15.783Z,46.57
2022-08-01T01:36:44.125Z,47.05
2022-08-01T01:39:12.195Z,46.89
2022-08-01T01:41:40.299Z,46.66
2022-08-01T01:44:08.401Z,46.83
2022-08-01T01:46:37.828Z,46.79
2022-08-01T01:49:06.571Z,47.01
2022-08-01T01:51:34.694Z,46.73
2022-08-01T01:54:02.812Z,46.80
2022-08-01T01:56:30.935Z,46.87
2022-08-01T01:59:01.653Z,46.97
2022-08-01T02:01:58.632Z,46.77
2022-08-01T02:04:22.000Z,46.90
2022-08-01T02:06:54.111Z,47.13
2022-08-01T02:09:22.917Z,46.74
2022-08-01T02:12:07.215Z,46.69
2022-08-01T02:14:37.231Z,46.81
2022-08-01T02:17:05.771Z,46.76
2022-08-01T02:19:38.054Z,46.89
2022-08-01T02:22:08.636Z,46.48
2022-08-01T02:24:38.910Z,46.77
2022-08-01T02:27:08.479Z,46.67
2022-08-01T02:29:40.137Z,46.63
2022-08-01T02:32:09.118Z,46.55
2022-08-01T02:34:38.808Z,46.67
2022-08-01T02:37:07.667Z,46.59
2022-08-01T02:39:35.772Z,46.61
2022-08-01T02:42:07.447Z,46.64
2022-08-01T02:44:39.148Z,46.47
2022-08-01T02:47:07.615Z,46.43
2022-08-01T02:49:37.604Z,46.47
2022-08-01T02:52:09.768Z,46.29
2022-08-01T02:54:38.295Z,46.62
2022-08-01T02:57:06.911Z,46.90
2022-08-01T02:59:35.123Z,46.67
2022-08-01T03:02:03.961Z,46.69
2022-08-01T03:04:32.331Z,46.87
2022-08-01T03:07:00.460Z,46.42
2022-08-01T03:09:30.156Z,46.55
2022-08-01T03:11:59.140Z,46.66
2022-08-01T03:14:27.240Z,46.60
2022-08-01T03:16:55.473Z,46.60
2022-08-01T03:19:23.888Z,46.60
2022-08-01T03:21:51.997Z,46.14
2022-08-01T03:24:20.113Z,46.45
2022-08-01T03:26:49.591Z,46.59
2022-08-01T03:29:19.030Z,46.48
2022-08-01T03:31:47.130Z,46.28
2022-08-01T03:34:15.232Z,46.29
2022-08-01T03:36:46.093Z,46.47
2022-08-01T03:39:16.099Z,46.57
2022-08-01T03:41:45.764Z,46.44
2022-08-01T03:44:16.626Z,46.53
2022-08-01T03:46:45.792Z,46.24
2022-08-01T03:49:16.604Z,46.47
2022-08-01T03:51:46.118Z,46.45
2022-08-01T03:54:14.221Z,46.39
2022-08-01T03:56:42.373Z,46.36
2022-08-01T03:59:10.472Z,46.65
2022-08-01T04:01:40.166Z,46.67
2022-08-01T04:04:08.288Z,46.44
2022-08-01T04:06:39.381Z,46.28
2022-08-01T04:09:13.173Z,46.33
2022-08-01T04:11:41.996Z,46.45
2022-08-01T04:14:10.115Z,46.43
2022-08-01T04:16:39.767Z,46.56
2022-08-01T04:19:08.632Z,46.68
2022-08-01T04:21:36.912Z,46.43
2022-08-01T04:24:08.848Z,46.38
2022-08-01T04:26:37.343Z,46.42
2022-08-01T04:29:06.005Z,46.39
2022-08-01T04:31:34.142Z,46.45
2022-08-01T04:34:04.220Z,46.47
2022-08-01T04:36:32.346Z,46.22
2022-08-01T04:39:02.114Z,46.32
2022-08-01T04:41:30.401Z,46.58
2022-08-01T04:44:00.342Z,46.63
2022-08-01T04:46:28.796Z,46.36
2022-08-01T04:48:57.101Z,46.29
2022-08-01T04:51:26.753Z,46.22
2022-08-01T04:53:54.881Z,46.33
2022-08-01T04:56:23.102Z,46.53
2022-08-01T04:59:17.623Z,46.49
2022-08-01T05:01:51.250Z,46.62
2022-08-01T05:04:19.575Z,46.93
2022-08-01T05:06:49.064Z,46.93
2022-08-01T05:09:17.140Z,47.21
2022-08-01T05:11:45.317Z,47.21
2022-08-01T05:14:13.379Z,47.09
2022-08-01T05:16:42.818Z,47.39
2022-08-01T05:19:11.000Z,47.54
2022-08-01T05:21:39.211Z,47.40
2022-08-01T05:24:08.975Z,47.20
2022-08-01T05:26:37.059Z,47.37
2022-08-01T05:29:05.294Z,47.72
2022-08-01T05:31:35.167Z,47.83
2022-08-01T05:34:03.415Z,47.49
2022-08-01T05:36:31.663Z,47.62
2022-08-01T05:38:59.774Z,47.78
2022-08-01T05:41:29.267Z,48.00
2022-08-01T05:43:57.410Z,48.60
2022-08-01T05:46:26.845Z,48.32
2022-08-01T05:48:55.977Z,48.51
2022-08-01T05:51:24.157Z,48.35
2022-08-01T05:53:52.248Z,48.59
2022-08-01T05:56:20.393Z,48.79
2022-08-01T05:58:50.423Z,48.78
2022-08-01T06:01:18.578Z,48.87
2022-08-01T06:03:46.675Z,48.98
2022-08-01T06:06:15.076Z,49.23
2022-08-01T06:08:43.315Z,49.15
2022-08-01T06:11:11.457Z,49.29
2022-08-01T06:13:48.618Z,49.54
2022-08-01T06:16:18.639Z,49.44
2022-08-01T06:18:46.806Z,48.91
2022-08-01T06:21:14.959Z,49.53
2022-08-01T06:23:43.607Z,49.60
2022-08-01T06:26:12.016Z,49.55
2022-08-01T06:28:40.320Z,49.75
2022-08-01T06:31:11.097Z,50.17
2022-08-01T06:33:40.662Z,49.81
2022-08-01T06:36:08.857Z,49.75
2022-08-01T06:38:36.956Z,49.95
2022-08-01T06:41:05.100Z,49.85
2022-08-01T06:43:33.391Z,50.11
2022-08-01T06:46:01.509Z,50.00
2022-08-01T06:48:29.624Z,50.05
2022-08-01T06:51:09.764Z,50.37
2022-08-01T06:53:38.229Z,50.54
2022-08-01T06:56:06.752Z,50.61
2022-08-01T06:58:35.634Z,50.55
2022-08-01T07:01:05.831Z,50.77
2022-08-01T07:03:53.796Z,50.99
2022-08-01T07:06:24.297Z,50.79
2022-08-01T07:08:52.539Z,50.77
2022-08-01T07:11:20.660Z,51.01
2022-08-01T07:13:48.763Z,50.84
2022-08-01T07:16:17.292Z,51.34
2022-08-01T07:18:45.446Z,51.38
2022-08-01T07:21:16.642Z,51.26
2022-08-01T07:24:13.152Z,51.09
2022-08-01T07:26:53.218Z,51.16
2022-08-01T07:29:24.106Z,51.28
2022-08-01T07:31:52.296Z,51.33
2022-08-01T07:34:20.389Z,51.34
2022-08-01T07:36:48.632Z,51.18
2022-08-01T07:39:18.110Z,51.34
2022-08-01T07:42:05.583Z,51.30
2022-08-01T07:44:34.301Z,51.34
2022-08-01T07:47:02.477Z,51.23
2022-08-01T07:49:31.146Z,51.30
2022-08-01T07:52:02.365Z,51.62
2022-08-01T07:54:34.570Z,51.88
2022-08-01T07:57:03.043Z,51.88
2022-08-01T07:59:31.196Z,51.69
2022-08-01T08:01:59.386Z,51.81
2022-08-01T08:04:27.721Z,51.94
2022-08-01T08:06:55.893Z,52.23
2022-08-01T08:09:24.131Z,52.35
2022-08-01T08:11:53.616Z,52.67
2022-08-01T08:14:32.265Z,52.74
2022-08-01T08:17:01.983Z,52.81
2022-08-01T08:19:37.803Z,52.76
2022-08-01T08:22:07.340Z,52.61
2022-08-01T08:24:35.759Z,52.73
2022-08-01T08:27:05.427Z,52.66
2022-08-01T08:29:33.911Z,52.70
2022-08-01T08:32:02.132Z,52.50
2022-08-01T08:34:30.401Z,52.70
2022-08-01T08:36:59.382Z,52.77
2022-08-01T08:39:27.766Z,52.54
2022-08-01T08:41:55.883Z,52.79
2022-08-01T08:44:25.364Z,52.71
2022-08-01T08:46:54.155Z,52.60
2022-08-01T08:49:23.221Z,52.67
2022-08-01T08:51:51.907Z,52.94
2022-08-01T08:54:21.862Z,52.97
2022-08-01T08:57:00.312Z,52.53
2022-08-01T08:59:29.902Z,53.05
2022-08-01T09:01:58.341Z,53.31
2022-08-01T09:04:26.928Z,52.85
2022-08-01T09:06:55.773Z,52.91
2022-08-01T09:09:24.085Z,53.10
2022-08-01T09:11:57.363Z,53.10
2022-08-01T09:14:28.372Z,53.40
2022-08-01T09:17:07.663Z,53.04
2022-08-01T09:19:41.413Z,53.19
2022-08-01T09:22:11.217Z,52.98
2022-08-01T09:24:40.319Z,53.32
2022-08-01T09:27:22.128Z,53.21
2022-08-01T09:30:01.153Z,53.38
2022-08-01T09:32:36.354Z,53.43
2022-08-01T09:35:31.054Z,53.21
2022-08-01T09:38:16.712Z,53.31
2022-08-01T09:40:52.680Z,53.48
2022-08-01T09:43:21.218Z,53.32
2022-08-01T09:45:50.787Z,53.47
2022-08-01T09:48:28.629Z,53.73
2022-08-01T09:51:04.695Z,53.71
2022-08-01T09:53:52.189Z,53.98
2022-08-01T09:56:22.280Z,54.10
2022-08-01T09:59:00.545Z,54.06
2022-08-01T10:01:36.077Z,53.78
2022-08-01T10:04:12.228Z,54.10
2022-08-01T10:06:41.843Z,53.66
2022-08-01T10:09:10.028Z,53.76
2022-08-01T10:11:40.241Z,53.28
2022-08-01T10:14:08.623Z,53.93
2022-08-01T10:16:37.262Z,53.24
2022-08-01T10:19:14.526Z,53.39
2022-08-01T10:21:58.296Z,53.19
2022-08-01T10:24:29.600Z,53.05
2022-08-01T10:27:06.059Z,52.94
2022-08-01T10:29:46.389Z,52.85
2022-08-01T10:32:28.986Z,52.81
2022-08-01T10:34:57.814Z,53.11
2022-08-01T10:37:28.003Z,52.40
2022-08-01T10:40:14.080Z,52.26
2022-08-01T10:42:44.951Z,52.44
2022-08-01T10:45:14.776Z,52.47
2022-08-01T10:47:50.599Z,52.27
2022-08-01T10:50:25.973Z,52.15
2022-08-01T10:53:16.233Z,52.15
2022-08-01T10:55:49.244Z,52.18
2022-08-01T10:58:23.759Z,52.23
2022-08-01T11:01:33.320Z,52.17
2022-08-01T11:04:13.794Z,52.55
2022-08-01T11:06:50.975Z,52.52
2022-08-01T11:09:41.084Z,52.33
2022-08-01T11:12:12.798Z,52.01
2022-08-01T11:15:31.300Z,52.39
2022-08-01T11:18:04.462Z,52.21
2022-08-01T11:20:34.503Z,52.07
2022-08-01T11:23:25.099Z,52.16
2022-08-01T11:26:13.033Z,52.18
2022-08-01T11:28:54.424Z,51.88
2022-08-01T11:31:37.440Z,52.02
2022-08-01T11:34:06.391Z,52.09
2022-08-01T11:36:58.275Z,51.71
2022-08-01T11:39:22.907Z,51.68
2022-08-01T11:41:53.627Z,51.42
2022-08-01T11:44:26.727Z,51.49
2022-08-01T11:46:57.577Z,51.34
2022-08-01T11:49:33.209Z,51.34
2022-08-01T11:52:02.997Z,51.15
2022-08-01T11:54:35.267Z,51.20
2022-08-01T11:57:07.192Z,50.94
2022-08-01T11:59:41.477Z,51.10
2022-08-01T12:02:30.102Z,51.16
2022-08-01T12:04:59.443Z,50.68
2022-08-01T12:07:29.052Z,50.89
2022-08-01T12:10:02.810Z,51.15
2022-08-01T12:12:32.686Z,50.49
2022-08-01T12:15:01.795Z,50.29
2022-08-01T12:17:31.513Z,50.31
2022-08-01T12:19:59.607Z,50.32
2022-08-01T12:22:27.762Z,50.48
2022-08-01T12:24:55.897Z,49.78
2022-08-01T12:27:27.499Z,49.84
2022-08-01T12:29:57.323Z,49.70
2022-08-01T12:32:35.730Z,49.49
2022-08-01T12:35:05.452Z,49.29
2022-08-01T12:37:34.370Z,49.31
2022-08-01T12:40:02.573Z,48.57
2022-08-01T12:42:30.849Z,48.82
2022-08-01T12:45:00.355Z,48.67
2022-08-01T12:47:28.558Z,48.75
2022-08-01T12:49:56.663Z,48.53
2022-08-01T12:52:26.815Z,48.41
2022-08-01T12:55:10.434Z,48.49
2022-08-01T12:57:39.883Z,48.61
2022-08-01T13:00:15.565Z,48.31
2022-08-01T13:02:43.752Z,47.92
2022-08-01T13:05:11.976Z,47.92
2022-08-01T13:07:50.022Z,47.58
2022-08-01T13:10:26.946Z,47.40
2022-08-01T13:12:56.454Z,47.42
2022-08-01T13:15:28.281Z,47.37
2022-08-01T13:17:56.413Z,46.92
2022-08-01T13:20:29.080Z,47.29
2022-08-01T13:22:57.180Z,46.92
2022-08-01T13:25:27.521Z,47.09
2022-08-01T13:28:16.549Z,46.82
2022-08-01T13:30:55.125Z,46.79
2022-08-01T13:33:23.294Z,46.49
2022-08-01T13:35:52.930Z,46.03
2022-08-01T13:38:21.118Z,46.24
2022-08-01T13:40:49.221Z,45.86
2022-08-01T13:43:17.327Z,45.91
2022-08-01T13:45:45.499Z,45.43
2022-08-01T13:48:18.998Z,45.44
2022-08-01T13:51:01.953Z,45.54
2022-08-01T13:53:36.599Z,45.34
2022-08-01T13:56:04.852Z,45.13
2022-08-01T13:58:32.989Z,45.17
2022-08-01T14:01:01.197Z,44.72
2022-08-01T14:03:33.759Z,44.81
2022-08-01T14:06:02.437Z,44.89
2022-08-01T14:08:30.520Z,44.99
2022-08-01T14:10:59.721Z,44.81
2022-08-01T14:13:33.614Z,44.78
2022-08-01T14:16:05.476Z,44.72
2022-08-01T14:18:34.991Z,44.56
2022-08-01T14:21:06.238Z,44.29
2022-08-01T14:23:34.312Z,44.27
2022-08-01T14:26:09.733Z,44.78
2022-08-01T14:28:39.750Z,44.84
2022-08-01T14:31:08.713Z,44.36
2022-08-01T14:33:38.253Z,43.95
2022-08-01T14:36:29.534Z,44.27
2022-08-01T14:38:54.893Z,44.08
2022-08-01T14:41:30.698Z,44.01
2022-08-01T14:44:00.710Z,44.04
2022-08-01T14:46:28.825Z,44.06
2022-08-01T14:49:01.122Z,44.23
2022-08-01T14:51:34.052Z,43.97
2022-08-01T14:54:02.282Z,44.00
2022-08-01T14:56:32.334Z,43.70
2022-08-01T14:59:00.878Z,44.00
2022-08-01T15:01:29.043Z,43.90
2022-08-01T15:03:57.164Z,44.27
2022-08-01T15:06:26.746Z,43.86
2022-08-01T15:08:54.955Z,43.98
2022-08-01T15:11:23.079Z,43.87
2022-08-01T15:14:12.294Z,43.86
2022-08-01T15:16:40.493Z,43.53
2022-08-01T15:19:08.575Z,43.81
2022-08-01T15:21:42.196Z,43.77
2022-08-01T15:24:11.320Z,44.00
2022-08-01T15:26:39.616Z,43.35
2022-08-01T15:29:07.738Z,43.71
2022-08-01T15:31:39.012Z,43.58
2022-08-01T15:34:07.398Z,44.03
2022-08-01T15:36:36.973Z,44.06
2022-08-01T15:39:10.268Z,44.19
2022-08-01T15:41:38.388Z,44.21
2022-08-01T15:44:06.483Z,43.87
2022-08-01T15:46:34.685Z,43.94
2022-08-01T15:49:04.077Z,44.09
2022-08-01T15:51:32.287Z,43.99
2022-08-01T15:54:03.572Z,43.90
2022-08-01T15:56:31.964Z,43.96
2022-08-01T15:59:00.243Z,44.02
2022-08-01T16:01:28.539Z,44.07
2022-08-01T16:03:56.780Z,44.12
2022-08-01T16:06:25.227Z,44.18
2022-08-01T16:08:53.397Z,44.34
2022-08-01T16:11:24.032Z,44.41
2022-08-01T16:13:52.236Z,44.52
2022-08-01T16:16:20.383Z,44.49
2022-08-01T16:18:53.661Z,44.76
2022-08-01T16:21:22.623Z,44.97
2022-08-01T16:23:50.716Z,44.52
2022-08-01T16:26:27.717Z,44.63
2022-08-01T16:28:58.285Z,44.64
2022-08-01T16:31:35.324Z,44.39
2022-08-01T16:34:05.754Z,44.51
2022-08-01T16:36:33.936Z,45.19
2022-08-01T16:39:02.136Z,45.04
2022-08-01T16:41:30.364Z,45.14
2022-08-01T16:44:00.125Z,44.92
2022-08-01T16:46:28.315Z,44.90
2022-08-01T16:48:56.504Z,45.02
2022-08-01T16:51:24.733Z,44.92
2022-08-01T16:53:52.951Z,44.75
2022-08-01T16:56:21.531Z,45.12
2022-08-01T16:58:49.940Z,44.75
2022-08-01T17:01:56.186Z,44.69
2022-08-01T17:04:07.826Z,45.39
2022-08-01T17:06:36.001Z,45.08
2022-08-01T17:09:04.655Z,44.98
2022-08-01T17:11:32.980Z,45.41
2022-08-01T17:14:01.051Z,45.49
2022-08-01T17:16:30.552Z,45.64
2022-08-01T17:18:58.628Z,45.20
2022-08-01T17:21:26.744Z,45.50
2022-08-01T17:23:54.848Z,45.45
2022-08-01T17:26:23.000Z,45.68
2022-08-01T17:28:51.094Z,45.93
2022-08-01T17:31:19.232Z,45.53
2022-08-01T17:33:54.540Z,45.90
2022-08-01T17:36:23.274Z,46.10
2022-08-01T17:38:51.333Z,45.97
2022-08-01T17:41:19.415Z,45.83
2022-08-01T17:43:47.537Z,45.92
2022-08-01T17:46:15.735Z,45.73
2022-08-01T17:48:44.591Z,46.12
2022-08-01T17:51:17.087Z,46.02
2022-08-01T17:53:55.747Z,46.18
2022-08-01T17:56:25.929Z,46.34
2022-08-01T17:58:54.080Z,46.21
2022-08-01T18:01:22.310Z,46.29
2022-08-01T18:03:55.503Z,46.50
2022-08-01T18:06:27.307Z,46.68
2022-08-01T18:08:56.236Z,46.83
2022-08-01T18:11:27.375Z,47.00
2022-08-01T18:13:57.020Z,46.98
2022-08-01T18:16:27.856Z,46.79
2022-08-01T18:18:56.375Z,47.33
2022-08-01T18:21:24.481Z,46.95
2022-08-01T18:23:54.207Z,47.42
2022-08-01T18:26:22.406Z,47.23
2022-08-01T18:28:50.563Z,47.05
2022-08-01T18:31:20.486Z,47.60
2022-08-01T18:33:48.940Z,47.43
2022-08-01T18:36:31.900Z,47.39
2022-08-01T18:39:10.328Z,47.71
2022-08-01T18:41:39.059Z,47.57
2022-08-01T18:44:08.384Z,47.87
2022-08-01T18:46:38.189Z,47.71
2022-08-01T18:49:06.932Z,48.16
2022-08-01T18:51:37.902Z,47.97
2022-08-01T18:54:12.958Z,48.13
2022-08-01T18:56:41.156Z,48.08
2022-08-01T18:59:09.528Z,48.28
2022-08-01T19:01:37.658Z,48.77
2022-08-01T19:04:06.403Z,48.48
2022-08-01T19:06:34.584Z,48.42
2022-08-01T19:09:03.671Z,48.66
2022-08-01T19:11:33.296Z,48.58
2022-08-01T19:14:02.372Z,48.74
2022-08-01T19:16:30.686Z,48.74
2022-08-01T19:18:58.908Z,48.86
2022-08-01T19:21:27.328Z,48.84
2022-08-01T19:24:23.691Z,49.11
2022-08-01T19:26:54.467Z,49.35
2022-08-01T19:29:23.368Z,49.15
2022-08-01T19:31:51.641Z,49.21
2022-08-01T19:34:26.779Z,49.53
2022-08-01T19:36:56.599Z,49.33
2022-08-01T19:39:27.134Z,49.63
2022-08-01T19:41:57.246Z,49.12
2022-08-01T19:44:26.296Z,49.61
2022-08-01T19:46:54.371Z,49.34
2022-08-01T19:49:23.283Z,49.65
2022-08-01T19:51:52.341Z,49.73
2022-08-01T19:54:21.263Z,49.44
2022-08-01T19:56:49.829Z,50.00
2022-08-01T19:59:20.321Z,49.80
2022-08-01T20:01:49.621Z,49.95
2022-08-01T20:04:17.821Z,49.64
2022-08-01T20:06:46.352Z,50.10
2022-08-01T20:09:14.438Z,49.85
2022-08-01T20:11:45.608Z,50.03
2022-08-01T20:14:13.953Z,50.12
2022-08-01T20:16:43.606Z,50.15
2022-08-01T20:19:11.704Z,49.85
2022-08-01T20:21:39.899Z,50.20
2022-08-01T20:24:08.858Z,50.30
2022-08-01T20:26:36.963Z,50.25
2022-08-01T20:29:05.320Z,50.22
2022-08-01T20:31:43.295Z,50.23
2022-08-01T20:34:15.735Z,50.42
2022-08-01T20:36:54.468Z,50.37
2022-08-01T20:39:25.173Z,50.33
2022-08-01T20:41:59.528Z,50.41
2022-08-01T20:44:31.766Z,50.32
2022-08-01T20:47:01.275Z,50.55
2022-08-01T20:49:30.912Z,50.14
2022-08-01T20:51:59.065Z,50.81
2022-08-01T20:54:30.309Z,50.32
2022-08-01T20:56:59.296Z,50.60
2022-08-01T20:59:40.150Z,50.87
2022-08-01T21:02:29.975Z,50.54
2022-08-01T21:05:02.083Z,50.49
2022-08-01T21:07:32.623Z,50.76
2022-08-01T21:10:05.382Z,50.70
2022-08-01T21:12:40.876Z,50.27
2022-08-01T21:15:10.199Z,50.57
2022-08-01T21:17:44.289Z,50.71
2022-08-01T21:20:14.673Z,50.26
2022-08-01T21:22:47.533Z,50.55
2022-08-01T21:25:15.719Z,50.61
2022-08-01T21:27:43.814Z,50.44
2022-08-01T21:30:12.566Z,50.27
2022-08-01T21:32:40.996Z,50.60
2022-08-01T21:35:16.591Z,50.46
2022-08-01T21:37:52.670Z,50.48
2022-08-01T21:40:21.636Z,50.51
2022-08-01T21:42:49.757Z,50.49
2022-08-01T21:45:17.888Z,50.62
2022-08-01T21:47:46.561Z,50.48
2022-08-01T21:50:14.704Z,50.89
2022-08-01T21:52:44.815Z,50.66
2022-08-01T21:55:35.243Z,50.51
2022-08-01T21:58:34.229Z,50.47
2022-08-01T22:01:08.339Z,50.47
2022-08-01T22:03:45.251Z,50.69
2022-08-01T22:06:13.741Z,50.56
2022-08-01T22:08:47.169Z,50.57
2022-08-01T22:11:18.459Z,50.49
2022-08-01T22:13:46.639Z,50.43
2022-08-01T22:16:15.418Z,50.54
2022-08-01T22:18:43.480Z,50.41
2022-08-01T22:21:11.769Z,50.39
2022-08-01T22:23:39.901Z,50.30
2022-08-01T22:26:08.781Z,50.51
2022-08-01T22:28:38.804Z,50.23
2022-08-01T22:31:07.832Z,50.39
2022-08-01T22:33:36.517Z,50.54
2022-08-01T22:36:05.288Z,50.50
2022-08-01T22:38:33.444Z,50.51
2022-08-01T22:41:02.889Z,50.16
2022-08-01T22:43:31.847Z,50.77
2022-08-01T22:46:17.440Z,50.28
2022-08-01T22:48:47.088Z,50.24
2022-08-01T22:51:22.456Z,50.36
2022-08-01T22:53:54.489Z,50.52
2022-08-01T22:56:22.637Z,50.56
2022-08-01T22:58:50.698Z,50.61
2022-08-01T23:01:22.168Z,50.42
2022-08-01T23:03:51.624Z,50.55
2022-08-01T23:06:22.099Z,50.63
2022-08-01T23:08:50.220Z,50.74
2022-08-01T23:11:18.320Z,50.44
2022-08-01T23:13:46.428Z,50.60
2022-08-01T23:16:17.328Z,50.48
2022-08-01T23:18:47.388Z,50.42
2022-08-01T23:21:15.449Z,50.46
2022-08-01T23:23:43.545Z,50.20
2022-08-01T23:26:11.620Z,50.67
2022-08-01T23:28:43.680Z,50.49
2022-08-01T23:31:12.102Z,50.45
2022-08-01T23:33:40.247Z,50.72
2022-08-01T23:36:09.993Z,50.41
2022-08-01T23:38:38.161Z,50.52
2022-08-01T23:41:14.892Z,50.46
2022-08-01T23:43:51.928Z,50.23
2022-08-01T23:46:20.419Z,50.53
2022-08-01T23:48:48.589Z,50.55
2022-08-01T23:51:24.769Z,50.55
2022-08-01T23:53:53.489Z,50.63
2022-08-01T23:56:25.306Z,50.43
2022-08-01T23:58:53.941Z,50.55
